Time;durP1;ratioP1;P1;durP2;ratioP2;P2;SDS_P1;SDS_P2;PMS_P1;PMS_P2;Temp;Humidity;BMP_temperature;BMP_pressure;BME280_temperature;BME280_humidity;BME280_pressure;Samples;Min_cycle;Max_cycle;Signal;HPM_P1;HPM_P2
2023/03/28 05:17:18;;;;;;;3.45;1.35;;;;;;;;;;6244433;22;20008;-94
2023/03/28 07:11:12;;;;;;;3.72;1.20;;;;;;;;;;6261047;22;20008;-95
2023/03/28 07:13:40;;;;;;;2.45;0.85;;;;;;;;;;6234405;23;20011;-94
2023/03/28 07:45:32;;;;;;;3.22;1.17;;;;;;;;;;6252075;22;20051;-96
2023/03/28 13:18:24;;;;;;;5.18;1.38;;;;;;;;;;6275516;22;20027;-95
2023/03/28 16:44:47;;;;;;;5.03;1.95;;;;;;;;;;6254958;22;20028;-96
2023/03/28 16:47:37;;;;;;;4.85;2.10;;;;;;;;;;6223039;23;20004;-94
2023/03/28 16:50:03;;;;;;;4.10;1.90;;;;;;;;;;6250285;23;20005;-95
2023/03/28 17:36:41;;;;;;;5.10;2.30;;;;;;;;;;6245104;23;20023;-92
2023/03/28 17:39:07;;;;;;;4.35;1.92;;;;;;;;;;6218150;23;20008;-91
2023/03/28 17:41:36;;;;;;;6.32;2.50;;;;;;;;;;6216925;23;20028;-88
2023/03/28 17:44:07;;;;;;;4.93;1.95;;;;;;;;;;6215157;23;20087;-89
2023/03/28 17:46:37;;;;;;;4.43;1.70;;;;;;;;;;6218712;23;20012;-87
2023/03/28 17:49:07;;;;;;;5.13;2.28;;;;;;;;;;6220635;23;20007;-89
2023/03/28 17:51:45;;;;;;;4.72;2.00;;;;;;;;;;6224202;23;20011;-90
2023/03/28 17:54:14;;;;;;;4.43;2.50;;;;;;;;;;6221420;23;20066;-88
2023/03/28 17:56:40;;;;;;;4.80;1.90;;;;;;;;;;6243075;23;20390;-90
2023/03/28 17:59:11;;;;;;;5.10;2.17;;;;;;;;;;6244371;23;20038;-90
2023/03/28 20:20:50;;;;;;;4.65;2.78;;;;;;;;;;6242446;22;20020;-92
2023/03/28 20:23:18;;;;;;;5.25;2.75;;;;;;;;;;6218585;23;20434;-93
2023/03/28 20:25:45;;;;;;;5.22;2.88;;;;;;;;;;6217789;23;20004;-92
2023/03/28 20:28:13;;;;;;;8.93;3.05;;;;;;;;;;6217232;23;20023;-93
2023/03/28 20:30:40;;;;;;;7.63;3.25;;;;;;;;;;6217114;23;20004;-92
2023/03/28 20:33:07;;;;;;;6.43;3.05;;;;;;;;;;6217291;23;20004;-92
2023/03/28 20:35:34;;;;;;;5.68;3.05;;;;;;;;;;6217136;23;20464;-91
2023/03/28 20:38:00;;;;;;;5.95;3.03;;;;;;;;;;6214648;23;20628;-93
2023/03/28 20:40:29;;;;;;;6.63;2.88;;;;;;;;;;6218472;23;20365;-93
2023/03/28 20:42:56;;;;;;;6.57;2.90;;;;;;;;;;6219513;23;19997;-92
2023/03/28 20:45:22;;;;;;;6.15;2.65;;;;;;;;;;6214853;23;20050;-90
2023/03/28 20:47:55;;;;;;;6.75;3.17;;;;;;;;;;6214313;23;19988;-92
2023/03/28 20:50:21;;;;;;;;;;;;;;;;;;6217601;23;20063;-91
2023/03/28 20:52:47;;;;;;;6.13;2.90;;;;;;;;;;6216974;23;20265;-92
2023/03/28 20:55:13;;;;;;;5.78;2.72;;;;;;;;;;6216662;23;20543;-93
2023/03/28 20:57:41;;;;;;;5.55;2.90;;;;;;;;;;6219098;23;20000;-91
2023/03/28 21:00:11;;;;;;;5.38;3.40;;;;;;;;;;6216508;23;20019;-93
2023/03/28 21:02:37;;;;;;;4.88;2.58;;;;;;;;;;6216861;23;20008;-94
2023/03/28 21:05:07;;;;;;;5.93;3.20;;;;;;;;;;6217927;23;20012;-92
2023/03/28 21:07:36;;;;;;;5.88;3.35;;;;;;;;;;6216444;23;20000;-92
2023/03/28 21:10:02;;;;;;;7.13;3.53;;;;;;;;;;6217865;23;20012;-93
2023/03/28 21:12:29;;;;;;;5.05;2.67;;;;;;;;;;6218862;23;20373;-91
2023/03/28 21:14:55;;;;;;;6.72;3.38;;;;;;;;;;6217898;23;20011;-92
2023/03/28 21:17:24;;;;;;;7.22;3.30;;;;;;;;;;6218306;23;20008;-91
2023/03/28 21:36:31;;;;;;;7.15;3.22;;;;;;;;;;6274401;22;20020;-89
2023/03/28 21:38:57;;;;;;;5.35;2.45;;;;;;;;;;6275237;22;20023;-91
2023/03/28 21:41:26;;;;;;;5.72;2.90;;;;;;;;;;6275640;22;20082;-89
2023/03/28 21:43:53;;;;;;;4.63;2.40;;;;;;;;;;6249094;22;20011;-91
2023/03/28 21:46:19;;;;;;;7.70;2.33;;;;;;;;;;6247676;22;20004;-93
2023/03/28 21:48:46;;;;;;;5.80;2.95;;;;;;;;;;6247990;22;20007;-92
2023/03/28 21:51:14;;;;;;;6.40;2.65;;;;;;;;;;6246952;22;20080;-93
2023/03/28 21:53:41;;;;;;;7.47;3.38;;;;;;;;;;6247308;22;20004;-93
2023/03/28 21:56:08;;;;;;;7.32;3.88;;;;;;;;;;6248693;22;20015;-90
2023/03/28 21:58:37;;;;;;;6.50;3.97;;;;;;;;;;6248281;22;20313;-91
2023/03/28 22:01:03;;;;;;;7.13;3.33;;;;;;;;;;6248131;22;20050;-93
2023/03/28 22:03:30;;;;;;;5.15;2.95;;;;;;;;;;6249248;22;20008;-92
2023/03/28 22:05:56;;;;;;;6.68;3.83;;;;;;;;;;6247883;22;20007;-92
2023/03/28 22:08:22;;;;;;;8.38;3.80;;;;;;;;;;6249996;22;20032;-93
2023/03/28 22:10:53;;;;;;;7.05;3.40;;;;;;;;;;6250416;22;20006;-92
2023/03/28 22:13:20;;;;;;;6.80;3.30;;;;;;;;;;6248350;22;20016;-93
2023/03/28 22:15:46;;;;;;;8.43;3.45;;;;;;;;;;6248853;22;20031;-93
2023/03/28 22:18:15;;;;;;;5.00;2.88;;;;;;;;;;6245354;23;20008;-92
2023/03/28 22:20:44;;;;;;;5.70;3.10;;;;;;;;;;6219919;23;20000;-93
2023/03/28 22:23:10;;;;;;;6.25;3.38;;;;;;;;;;6220203;23;20027;-92
2023/03/28 22:25:41;;;;;;;5.10;2.53;;;;;;;;;;6218483;23;20008;-92
2023/03/28 22:28:08;;;;;;;6.15;3.15;;;;;;;;;;6219647;23;20000;-91
2023/03/28 22:30:42;;;;;;;7.40;2.88;;;;;;;;;;6220593;23;20321;-93
2023/03/28 22:33:09;;;;;;;6.88;2.55;;;;;;;;;;6247142;23;20054;-93
2023/03/28 22:35:38;;;;;;;5.25;2.60;;;;;;;;;;6219603;23;20062;-92
2023/03/28 22:38:05;;;;;;;5.78;2.88;;;;;;;;;;6220321;23;20047;-93
2023/03/28 22:40:31;;;;;;;7.22;2.90;;;;;;;;;;6249142;23;20004;-93
2023/03/28 22:42:57;;;;;;;5.13;2.47;;;;;;;;;;6224006;23;20087;-93
2023/03/28 22:45:30;;;;;;;6.38;2.65;;;;;;;;;;6225983;23;20482;-94
2023/03/28 22:47:59;;;;;;;5.80;2.85;;;;;;;;;;6224433;23;20004;-92
2023/03/28 22:50:25;;;;;;;7.32;2.95;;;;;;;;;;6250179;23;20004;-93
2023/03/28 22:52:51;;;;;;;8.73;2.42;;;;;;;;;;6223187;23;20005;-93
2023/03/28 22:55:18;;;;;;;4.10;1.83;;;;;;;;;;6222272;23;20434;-93
2023/03/28 23:42:20;;;;;;;6.32;1.70;;;;;;;;;;6243958;22;20505;-90
2023/03/28 23:44:47;;;;;;;4.93;2.00;;;;;;;;;;6218154;23;20058;-92
2023/03/28 23:47:13;;;;;;;4.30;1.92;;;;;;;;;;6219199;23;20008;-90
2023/03/28 23:49:41;;;;;;;6.15;2.70;;;;;;;;;;6221206;23;20000;-89
2023/03/28 23:52:11;;;;;;;5.07;2.20;;;;;;;;;;6234436;23;20031;-91
2023/03/28 23:54:38;;;;;;;4.60;1.92;;;;;;;;;;6235286;23;20012;-91
2023/03/28 23:57:11;;;;;;;5.60;2.30;;;;;;;;;;6232940;23;20066;-91
2023/03/28 23:59:37;;;;;;;4.47;1.98;;;;;;;;;;6224156;23;20004;-92
